Time;durP1;ratioP1;P1;durP2;ratioP2;P2;SDS_P1;SDS_P2;PMS_P1;PMS_P2;Temp;Humidity;BMP_temperature;BMP_pressure;BME280_temperature;BME280_humidity;BME280_pressure;Samples;Min_cycle;Max_cycle;Signal;HPM_P1;HPM_P2
2023/07/12 00:01:18;;;;;;;2.73;2.53;;;30.70;65.60;;;;;;5019126;28;20461;-71
2023/07/12 00:03:48;;;;;;;2.87;2.57;;;30.70;65.60;;;;;;5043999;28;20545;-71
2023/07/12 00:06:18;;;;;;;3.73;3.20;;;30.70;65.60;;;;;;5043340;28;20870;-71
2023/07/12 00:08:47;;;;;;;3.10;2.90;;;30.70;65.60;;;;;;5043289;28;20507;-71
2023/07/12 00:11:19;;;;;;;3.03;2.83;;;30.70;65.70;;;;;;5052755;28;20488;-72
2023/07/12 00:13:47;;;;;;;3.20;3.00;;;30.70;65.70;;;;;;5046156;28;20466;-71
2023/07/12 00:16:23;;;;;;;3.07;2.83;;;30.70;65.60;;;;;;5034586;28;20466;-72
2023/07/12 00:18:52;;;;;;;3.00;2.70;;;30.70;65.60;;;;;;5032608;28;20431;-71
2023/07/12 00:21:23;;;;;;;2.67;2.47;;;30.70;65.70;;;;;;5050260;28;20946;-71
2023/07/12 00:23:52;;;;;;;3.60;2.50;;;30.70;65.50;;;;;;5033362;28;20533;-71
2023/07/12 00:26:25;;;;;;;2.87;2.67;;;30.70;65.50;;;;;;5048381;28;20787;-71
2023/07/12 00:28:54;;;;;;;2.90;2.70;;;30.70;65.50;;;;;;5029331;28;20897;-72
2023/07/12 00:31:22;;;;;;;3.17;2.97;;;30.60;65.40;;;;;;5023824;28;20562;-71
2023/07/12 00:33:51;;;;;;;2.70;2.23;;;30.60;65.50;;;;;;5046297;28;20466;-71
2023/07/12 00:36:23;;;;;;;2.63;2.43;;;30.60;65.60;;;;;;5035017;28;20968;-71
2023/07/12 00:38:52;;;;;;;3.03;2.80;;;30.60;65.50;;;;;;5017348;28;20513;-71
2023/07/12 00:41:30;;;;;;;3.07;2.77;;;30.60;65.40;;;;;;5035765;28;20458;-71
2023/07/12 00:44:05;;;;;;;2.80;2.40;;;30.60;65.40;;;;;;5045153;28;20465;-71
2023/07/12 00:46:36;;;;;;;2.50;2.30;;;30.60;65.40;;;;;;5027144;28;20465;-71
2023/07/12 00:49:05;;;;;;;3.23;2.37;;;30.60;65.40;;;;;;5040081;28;20481;-71
2023/07/12 00:51:49;;;;;;;2.50;2.30;;;30.60;65.40;;;;;;5054290;28;20426;-71
2023/07/12 00:54:19;;;;;;;4.07;2.53;;;30.60;65.40;;;;;;5033247;28;21012;-71
2023/07/12 00:56:49;;;;;;;3.93;2.73;;;30.60;65.30;;;;;;5052932;28;20452;-71
2023/07/12 00:59:22;;;;;;;4.57;2.83;;;30.60;65.50;;;;;;5027628;28;20457;-70
2023/07/12 01:01:53;;;;;;;2.30;2.10;;;30.60;65.30;;;;;;5042924;28;20451;-71
2023/07/12 01:04:26;;;;;;;2.93;2.50;;;30.60;65.50;;;;;;5045466;28;20463;-71
2023/07/12 01:06:55;;;;;;;2.80;2.57;;;30.60;65.40;;;;;;5029974;28;20458;-71
2023/07/12 01:09:25;;;;;;;2.30;2.07;;;30.60;65.40;;;;;;5047836;28;20461;-71
2023/07/12 01:11:56;;;;;;;2.73;2.40;;;30.60;65.40;;;;;;5037732;28;20468;-71
2023/07/12 01:14:26;;;;;;;2.43;2.33;;;30.60;65.40;;;;;;5038862;28;20463;-71
2023/07/12 01:16:58;;;;;;;2.90;2.40;;;30.60;65.40;;;;;;5032467;28;20519;-71
2023/07/12 01:19:27;;;;;;;2.47;2.23;;;30.60;65.30;;;;;;5026998;28;20471;-71
2023/07/12 01:21:57;;;;;;;2.53;2.33;;;30.60;65.30;;;;;;5046469;28;20459;-71
2023/07/12 01:24:28;;;;;;;2.27;2.07;;;30.60;65.30;;;;;;5049942;28;20466;-71
2023/07/12 01:26:58;;;;;;;1.87;1.77;;;30.50;65.40;;;;;;5046729;28;20454;-71
2023/07/12 01:29:30;;;;;;;3.57;2.40;;;30.50;65.50;;;;;;5036661;28;20851;-71
2023/07/12 01:31:58;;;;;;;2.53;2.33;;;30.50;65.60;;;;;;5040195;28;21072;-68
2023/07/12 01:34:30;;;;;;;5.83;2.33;;;30.50;65.50;;;;;;5033752;28;20474;-68
2023/07/12 01:37:04;;;;;;;1.93;1.83;;;30.50;65.50;;;;;;5043655;28;20563;-68
2023/07/12 01:39:33;;;;;;;2.80;2.17;;;30.50;65.60;;;;;;5028703;28;21084;-71
2023/07/12 01:42:02;;;;;;;2.77;2.50;;;30.50;65.40;;;;;;5042017;28;20448;-71
2023/07/12 01:44:30;;;;;;;2.50;2.30;;;30.50;65.40;;;;;;5046278;28;20473;-69
2023/07/12 01:46:59;;;;;;;2.67;2.37;;;30.50;65.40;;;;;;5047170;28;20479;-69
2023/07/12 01:49:28;;;;;;;2.17;1.90;;;30.50;65.40;;;;;;5033498;28;20454;-69
2023/07/12 01:51:56;;;;;;;2.93;2.30;;;30.50;65.30;;;;;;5027972;28;20894;-69
2023/07/12 01:54:25;;;;;;;2.60;2.40;;;30.50;65.40;;;;;;5045984;28;20464;-69
2023/07/12 01:56:54;;;;;;;3.17;2.23;;;30.50;65.30;;;;;;5041795;28;20455;-69
2023/07/12 01:59:22;;;;;;;4.60;2.60;;;30.50;65.40;;;;;;5034656;28;20467;-69
2023/07/12 02:01:50;;;;;;;3.20;2.20;;;30.50;65.30;;;;;;5031341;28;20472;-69
2023/07/12 02:04:18;;;;;;;2.03;1.93;;;30.50;65.30;;;;;;5044464;28;21050;-69
2023/07/12 02:06:46;;;;;;;2.53;2.40;;;30.50;65.30;;;;;;5031350;28;20874;-69
2023/07/12 02:09:15;;;;;;;2.87;2.57;;;30.50;65.30;;;;;;5032835;28;20471;-71
2023/07/12 02:11:44;;;;;;;2.13;2.00;;;30.50;65.30;;;;;;5031370;28;20517;-71
2023/07/12 02:14:12;;;;;;;2.47;2.23;;;30.50;65.30;;;;;;5047814;28;20503;-69
2023/07/12 02:16:42;;;;;;;2.50;2.30;;;30.50;65.30;;;;;;5047265;28;20470;-69
2023/07/12 02:19:12;;;;;;;3.50;2.20;;;30.40;65.40;;;;;;5035768;28;20454;-69
2023/07/12 02:21:43;;;;;;;2.50;2.30;;;30.40;65.30;;;;;;5015169;28;20545;-69
2023/07/12 02:24:12;;;;;;;2.43;2.20;;;30.40;65.30;;;;;;5045868;28;20454;-69
2023/07/12 02:26:41;;;;;;;3.03;2.20;;;30.40;65.30;;;;;;5052005;28;20450;-69
2023/07/12 02:29:11;;;;;;;2.10;2.00;;;30.40;65.30;;;;;;5033218;28;20853;-69
2023/07/12 02:31:39;;;;;;;2.10;1.90;;;30.40;65.60;;;;;;5028564;28;20593;-69
2023/07/12 02:34:07;;;;;;;4.50;2.17;;;30.40;65.30;;;;;;5030497;28;20512;-70
2023/07/12 02:36:36;;;;;;;2.30;2.10;;;30.40;65.30;;;;;;5017606;28;20489;-69
2023/07/12 02:39:04;;;;;;;2.27;2.03;;;30.40;65.30;;;;;;5045568;28;20873;-69
2023/07/12 02:41:33;;;;;;;3.07;2.77;;;30.40;65.30;;;;;;5051480;28;20481;-69
2023/07/12 02:44:02;;;;;;;2.87;2.10;;;30.40;65.30;;;;;;5044064;28;20966;-70
2023/07/12 02:46:31;;;;;;;2.10;1.90;;;30.40;65.30;;;;;;5046071;28;20466;-70
2023/07/12 02:49:00;;;;;;;2.40;2.20;;;30.40;65.30;;;;;;5048707;28;20470;-70
2023/07/12 02:51:28;;;;;;;3.07;2.40;;;30.40;65.30;;;;;;5051073;28;20507;-70
2023/07/12 02:53:56;;;;;;;2.87;2.10;;;30.40;65.30;;;;;;5044845;28;20558;-70
2023/07/12 02:56:24;;;;;;;4.03;1.77;;;30.40;65.30;;;;;;5016855;28;20451;-69
2023/07/12 02:58:52;;;;;;;2.30;2.10;;;30.40;65.30;;;;;;5043866;28;20541;-70
2023/07/12 03:01:21;;;;;;;3.13;2.83;;;30.40;65.20;;;;;;5065204;28;20463;-70
2023/07/12 03:03:50;;;;;;;2.40;2.20;;;30.40;65.20;;;;;;5060013;28;20487;-70
2023/07/12 03:06:18;;;;;;;3.00;2.30;;;30.40;65.30;;;;;;5053550;28;20433;-70
2023/07/12 03:08:47;;;;;;;3.07;2.37;;;30.40;65.20;;;;;;5035012;28;20542;-70
2023/07/12 03:11:15;;;;;;;2.57;2.00;;;30.30;65.30;;;;;;5052078;28;20852;-70
2023/07/12 03:13:44;;;;;;;3.27;2.20;;;30.30;65.20;;;;;;5027599;28;20460;-70
2023/07/12 03:16:12;;;;;;;3.77;2.37;;;30.30;65.20;;;;;;5035614;28;20443;-70
2023/07/12 03:18:40;;;;;;;2.50;2.00;;;30.30;65.20;;;;;;5034527;28;20438;-70
2023/07/12 03:21:10;;;;;;;3.30;2.50;;;30.30;65.20;;;;;;5042996;28;20453;-70
2023/07/12 03:23:39;;;;;;;2.20;2.00;;;30.30;65.20;;;;;;5045135;28;20541;-69
2023/07/12 03:26:07;;;;;;;2.60;2.03;;;30.30;65.20;;;;;;5055421;28;20445;-70
2023/07/12 03:28:35;;;;;;;4.97;2.63;;;30.30;65.20;;;;;;5050261;28;21220;-70
2023/07/12 03:31:06;;;;;;;2.20;2.10;;;30.30;65.20;;;;;;5036124;28;20460;-70
2023/07/12 03:33:35;;;;;;;3.07;2.87;;;30.30;65.20;;;;;;5040123;28;20464;-70
2023/07/12 03:36:04;;;;;;;3.40;2.23;;;30.30;65.20;;;;;;5041538;28;20453;-70
2023/07/12 03:38:34;;;;;;;3.87;2.20;;;30.30;65.20;;;;;;5036259;28;20495;-70
2023/07/12 03:41:05;;;;;;;3.40;2.50;;;30.30;65.20;;;;;;5039401;28;20577;-70
2023/07/12 03:43:34;;;;;;;2.10;2.00;;;30.30;65.20;;;;;;5026156;28;20862;-70
2023/07/12 03:46:04;;;;;;;2.63;2.20;;;30.30;65.20;;;;;;5041708;28;20465;-70
2023/07/12 03:48:32;;;;;;;3.10;1.93;;;30.30;65.20;;;;;;5034359;28;20464;-70
2023/07/12 03:51:01;;;;;;;6.23;3.27;;;30.30;65.20;;;;;;5043714;28;20463;-70
2023/07/12 03:53:30;;;;;;;2.20;2.00;;;30.30;65.20;;;;;;5045765;28;20446;-70
2023/07/12 03:56:02;;;;;;;2.20;1.87;;;30.30;65.20;;;;;;5049748;28;20461;-69
2023/07/12 03:58:32;;;;;;;3.03;2.23;;;30.30;65.20;;;;;;5048702;28;20462;-69
2023/07/12 04:01:04;;;;;;;3.43;2.50;;;30.30;65.20;;;;;;5041755;28;20465;-69
2023/07/12 04:03:33;;;;;;;2.63;2.40;;;30.30;65.10;;;;;;5039279;28;20488;-69
2023/07/12 04:06:03;;;;;;;2.70;2.50;;;30.30;65.20;;;;;;5045986;28;20453;-69
2023/07/12 04:08:31;;;;;;;3.83;3.50;;;30.30;65.20;;;;;;5038606;28;20458;-69
2023/07/12 04:11:00;;;;;;;2.47;2.27;;;30.30;65.20;;;;;;5041794;28;20549;-69
2023/07/12 04:13:30;;;;;;;3.50;3.30;;;30.30;65.20;;;;;;5040258;28;20497;-69
2023/07/12 04:16:00;;;;;;;2.70;2.47;;;30.30;65.10;;;;;;5042293;28;20466;-69
2023/07/12 04:18:30;;;;;;;4.13;2.50;;;30.30;65.20;;;;;;5040917;28;20457;-69
2023/07/12 04:21:04;;;;;;;2.33;2.20;;;30.30;65.20;;;;;;5052044;28;20518;-70
2023/07/12 04:23:33;;;;;;;4.10;2.40;;;30.30;65.20;;;;;;5052572;28;20453;-69
2023/07/12 04:26:04;;;;;;;3.00;2.70;;;30.20;65.20;;;;;;5055753;28;20459;-69
2023/07/12 04:28:37;;;;;;;3.13;2.70;;;30.20;65.20;;;;;;5053237;28;20437;-69
2023/07/12 04:31:07;;;;;;;3.50;2.73;;;30.20;65.10;;;;;;5046842;28;20462;-69
2023/07/12 04:33:35;;;;;;;2.93;2.63;;;30.30;65.10;;;;;;5054291;28;20486;-69
2023/07/12 04:36:07;;;;;;;2.13;1.93;;;30.20;65.10;;;;;;5050245;28;20453;-69
2023/07/12 04:38:35;;;;;;;2.30;2.10;;;30.30;65.10;;;;;;5044316;28;20616;-69
2023/07/12 04:41:05;;;;;;;2.73;2.50;;;30.30;65.10;;;;;;5045267;28;20492;-69
2023/07/12 04:43:34;;;;;;;4.53;3.30;;;30.30;65.10;;;;;;5047557;28;21518;-69
2023/07/12 04:46:04;;;;;;;2.73;2.53;;;30.30;65.10;;;;;;5045404;28;20568;-69
2023/07/12 04:48:33;;;;;;;3.20;2.90;;;30.30;65.20;;;;;;5055289;28;20958;-69
2023/07/12 04:51:03;;;;;;;2.40;2.30;;;30.20;65.10;;;;;;5049342;28;20481;-69
2023/07/12 04:53:33;;;;;;;2.90;2.50;;;30.30;65.20;;;;;;5049840;28;20461;-69
2023/07/12 04:56:02;;;;;;;3.50;2.60;;;30.30;65.10;;;;;;5057458;28;20456;-69
2023/07/12 04:58:30;;;;;;;3.03;2.30;;;30.20;65.10;;;;;;5047062;28;20552;-70
2023/07/12 05:01:02;;;;;;;3.90;3.60;;;30.20;65.10;;;;;;5044877;28;21851;-69
2023/07/12 05:03:30;;;;;;;5.50;4.93;;;30.20;65.20;;;;;;5049782;28;20546;-70
2023/07/12 05:05:59;;;;;;;6.30;3.40;;;30.20;65.20;;;;;;5048925;28;20588;-68
2023/07/12 05:08:44;;;;;;;3.20;2.83;;;30.20;65.20;;;;;;5044232;28;20488;-70
2023/07/12 05:11:12;;;;;;;2.80;2.60;;;30.20;65.20;;;;;;5040807;28;20482;-69
2023/07/12 05:13:40;;;;;;;3.40;3.10;;;30.20;65.30;;;;;;5042262;28;20520;-69
2023/07/12 05:16:12;;;;;;;4.03;2.77;;;30.20;65.30;;;;;;5048745;28;20481;-71
2023/07/12 05:18:40;;;;;;;3.13;2.90;;;30.20;65.30;;;;;;5042249;28;20469;-69
2023/07/12 05:21:08;;;;;;;4.10;3.40;;;30.20;65.30;;;;;;5045446;28;20473;-64
2023/07/12 05:23:39;;;;;;;7.77;4.30;;;30.10;65.30;;;;;;5044308;28;20466;-65
2023/07/12 05:26:08;;;;;;;4.27;3.97;;;30.10;65.30;;;;;;5051944;28;21031;-67
2023/07/12 05:28:36;;;;;;;7.10;4.27;;;30.10;65.30;;;;;;5042496;28;20455;-64
2023/07/12 05:31:08;;;;;;;4.33;3.93;;;30.10;65.20;;;;;;5041868;28;20559;-64
2023/07/12 05:33:38;;;;;;;4.80;4.30;;;30.10;65.10;;;;;;5059282;28;20458;-66
2023/07/12 05:36:07;;;;;;;6.03;4.77;;;30.00;65.20;;;;;;5023290;28;20852;-65
2023/07/12 05:38:35;;;;;;;6.50;4.60;;;30.00;65.10;;;;;;5047004;28;20488;-65
2023/07/12 05:41:03;;;;;;;6.60;4.83;;;30.00;65.10;;;;;;5051950;28;20455;-65
2023/07/12 05:43:33;;;;;;;5.60;5.00;;;30.00;65.10;;;;;;5039919;28;20963;-64
2023/07/12 05:46:03;;;;;;;6.80;4.43;;;30.00;65.00;;;;;;5043466;28;20539;-66
2023/07/12 05:48:31;;;;;;;4.43;4.03;;;30.00;65.00;;;;;;5047634;28;20465;-66
2023/07/12 05:51:01;;;;;;;5.20;4.70;;;29.90;65.00;;;;;;5043300;28;20528;-64
2023/07/12 05:53:30;;;;;;;4.03;3.53;;;29.90;65.00;;;;;;5050042;28;20461;-64
2023/07/12 05:55:59;;;;;;;4.70;3.40;;;29.90;64.90;;;;;;5050328;28;20534;-64
2023/07/12 05:58:28;;;;;;;5.10;3.77;;;29.90;64.90;;;;;;5046794;28;20466;-64
2023/07/12 06:00:58;;;;;;;9.93;3.97;;;29.90;64.90;;;;;;5042468;28;20583;-64
2023/07/12 06:03:26;;;;;;;3.60;3.30;;;29.90;65.00;;;;;;5055082;28;20465;-65
2023/07/12 06:05:55;;;;;;;4.50;4.10;;;29.90;64.90;;;;;;5047892;28;20486;-64
2023/07/12 06:08:25;;;;;;;5.10;3.70;;;29.90;64.90;;;;;;5049109;28;20534;-64
2023/07/12 06:10:54;;;;;;;4.80;3.80;;;29.90;64.90;;;;;;5043927;28;20480;-65
2023/07/12 06:13:23;;;;;;;7.20;4.30;;;29.80;65.00;;;;;;5043307;28;20485;-63
2023/07/12 06:15:51;;;;;;;3.77;3.47;;;29.90;65.00;;;;;;5047611;28;20531;-64
2023/07/12 06:18:19;;;;;;;9.67;3.60;;;29.90;65.00;;;;;;5045949;28;20471;-64
2023/07/12 06:20:51;;;;;;;7.30;4.27;;;29.90;65.00;;;;;;5045763;28;20795;-64
2023/07/12 06:23:19;;;;;;;5.47;3.43;;;29.90;65.10;;;;;;5048892;28;20470;-63
2023/07/12 06:25:49;;;;;;;3.47;3.23;;;29.90;65.10;;;;;;5051097;28;20441;-66
2023/07/12 06:28:17;;;;;;;4.23;3.93;;;29.90;65.00;;;;;;5044642;28;20465;-66
2023/07/12 06:30:45;;;;;;;3.70;3.40;;;29.90;65.00;;;;;;5044100;28;20845;-65
2023/07/12 06:33:14;;;;;;;4.20;3.23;;;29.90;65.10;;;;;;5032093;28;20466;-65
2023/07/12 06:35:42;;;;;;;8.10;4.40;;;29.90;65.10;;;;;;5034340;28;20523;-66
2023/07/12 06:38:10;;;;;;;4.93;3.37;;;29.90;65.10;;;;;;5037791;28;20479;-65
2023/07/12 06:40:39;;;;;;;3.87;3.43;;;29.90;65.10;;;;;;5044237;28;20487;-65
2023/07/12 06:43:12;;;;;;;5.33;3.40;;;29.90;65.10;;;;;;5047558;28;20465;-67
2023/07/12 06:45:45;;;;;;;4.17;3.57;;;29.90;65.10;;;;;;5033668;28;20467;-66
2023/07/12 06:48:13;;;;;;;4.83;3.90;;;29.90;65.10;;;;;;5041110;28;20467;-66
2023/07/12 06:50:41;;;;;;;5.70;4.03;;;29.90;65.00;;;;;;5043180;28;20481;-66
2023/07/12 06:53:10;;;;;;;4.67;3.10;;;29.90;65.00;;;;;;5043230;28;20494;-65
2023/07/12 06:55:43;;;;;;;4.00;3.37;;;29.90;66.30;;;;;;5037807;28;21037;-65
2023/07/12 06:58:13;;;;;;;4.10;3.80;;;29.90;66.40;;;;;;5019317;28;20482;-67
2023/07/12 07:00:41;;;;;;;7.73;4.33;;;29.90;66.30;;;;;;5040833;28;20511;-65
2023/07/12 07:03:10;;;;;;;4.53;3.67;;;30.00;66.20;;;;;;5037763;28;20465;-65
2023/07/12 07:05:42;;;;;;;5.57;3.73;;;30.00;66.10;;;;;;5046331;28;20466;-64
2023/07/12 07:08:14;;;;;;;3.93;3.60;;;30.00;66.20;;;;;;5021814;28;20508;-66
2023/07/12 07:10:43;;;;;;;7.60;4.70;;;30.00;66.20;;;;;;5046868;28;20555;-66
2023/07/12 07:13:13;;;;;;;6.80;3.83;;;30.10;66.20;;;;;;5044178;28;20877;-67
2023/07/12 07:15:41;;;;;;;4.60;3.73;;;30.10;66.20;;;;;;5040811;28;20464;-66
2023/07/12 07:18:10;;;;;;;9.43;4.90;;;30.10;66.20;;;;;;5033023;28;20466;-66
2023/07/12 07:20:40;;;;;;;5.23;4.70;;;30.10;66.20;;;;;;5036187;28;20879;-64
2023/07/12 07:23:09;;;;;;;4.13;3.67;;;30.10;66.30;;;;;;5036363;28;20458;-64
2023/07/12 07:25:39;;;;;;;4.57;4.00;;;30.20;66.30;;;;;;5036620;28;20547;-65
2023/07/12 07:28:11;;;;;;;4.63;4.23;;;30.20;66.30;;;;;;5031558;28;20503;-65
2023/07/12 07:30:40;;;;;;;3.60;3.20;;;30.20;66.20;;;;;;5042251;28;20896;-65
2023/07/12 07:33:08;;;;;;;4.87;3.57;;;30.20;66.10;;;;;;5034454;28;20543;-65
2023/07/12 07:35:37;;;;;;;5.10;4.57;;;30.20;66.20;;;;;;5036614;28;20582;-66
2023/07/12 07:38:05;;;;;;;6.70;4.20;;;30.30;66.10;;;;;;5046083;28;20547;-65
2023/07/12 07:40:34;;;;;;;6.57;4.03;;;30.30;66.20;;;;;;5041838;28;20462;-65
2023/07/12 07:43:02;;;;;;;6.43;4.60;;;30.30;66.30;;;;;;5041287;28;20463;-66
2023/07/12 07:45:32;;;;;;;5.10;3.87;;;30.30;66.10;;;;;;5047562;28;20463;-64
2023/07/12 07:48:00;;;;;;;4.70;3.73;;;30.30;66.10;;;;;;5038995;28;20471;-65
2023/07/12 07:50:29;;;;;;;4.37;3.97;;;30.30;66.30;;;;;;5041840;28;20956;-65
2023/07/12 07:52:57;;;;;;;3.67;3.37;;;30.40;66.10;;;;;;5049257;28;20527;-65
2023/07/12 07:55:26;;;;;;;4.10;3.70;;;30.40;66.10;;;;;;5031001;28;20467;-65
2023/07/12 07:57:54;;;;;;;4.60;3.97;;;30.40;66.20;;;;;;5047228;28;20466;-66
2023/07/12 08:00:23;;;;;;;4.40;3.30;;;30.40;66.10;;;;;;5047217;28;20520;-67
2023/07/12 08:02:53;;;;;;;4.80;3.53;;;30.40;66.10;;;;;;5043706;28;20458;-65
2023/07/12 08:05:21;;;;;;;4.23;3.70;;;30.40;66.10;;;;;;5048438;28;20461;-65
2023/07/12 08:07:50;;;;;;;3.30;3.00;;;30.50;66.00;;;;;;5046436;28;20601;-66
2023/07/12 08:10:19;;;;;;;4.03;3.73;;;30.50;65.90;;;;;;5046716;28;21011;-64
2023/07/12 08:12:50;;;;;;;3.43;3.13;;;30.50;66.10;;;;;;5046181;28;20511;-65
2023/07/12 08:15:20;;;;;;;3.70;3.40;;;30.50;66.10;;;;;;5049391;28;20469;-69
2023/07/12 08:17:49;;;;;;;3.40;3.10;;;30.50;66.00;;;;;;5047130;28;20487;-65
2023/07/12 08:20:18;;;;;;;4.90;3.50;;;30.50;66.10;;;;;;5046868;28;20459;-66
2023/07/12 08:22:47;;;;;;;3.33;3.10;;;30.50;66.00;;;;;;5046102;28;20858;-66
2023/07/12 08:25:15;;;;;;;3.70;3.20;;;30.50;66.10;;;;;;5048399;28;20466;-66
2023/07/12 08:27:44;;;;;;;4.33;3.37;;;30.50;66.10;;;;;;5046635;28;20559;-65
2023/07/12 08:30:13;;;;;;;3.90;3.50;;;30.50;66.00;;;;;;5047389;28;20513;-66
2023/07/12 08:32:42;;;;;;;3.80;3.50;;;30.60;65.90;;;;;;5048140;28;20480;-65
2023/07/12 08:35:11;;;;;;;3.57;3.27;;;30.60;65.80;;;;;;5046649;28;20461;-64
2023/07/12 08:37:41;;;;;;;5.13;3.10;;;30.60;65.70;;;;;;5046799;28;20497;-64
2023/07/12 08:40:14;;;;;;;4.23;3.53;;;30.60;65.90;;;;;;5045213;28;20465;-65
2023/07/12 08:42:44;;;;;;;3.57;3.27;;;30.60;65.90;;;;;;5051171;28;20501;-64
2023/07/12 08:45:25;;;;;;;4.10;3.60;;;30.60;65.70;;;;;;5048764;28;20509;-65
2023/07/12 08:47:58;;;;;;;4.83;3.07;;;30.60;65.80;;;;;;5051124;28;20457;-65
2023/07/12 08:50:29;;;;;;;4.27;3.70;;;30.60;65.90;;;;;;5044804;28;20940;-65
2023/07/12 08:52:59;;;;;;;4.00;3.77;;;30.60;65.70;;;;;;5046103;28;20475;-65
2023/07/12 08:55:28;;;;;;;8.60;3.47;;;30.60;65.70;;;;;;5045159;28;20534;-66
2023/07/12 08:58:12;;;;;;;3.07;2.77;;;30.60;65.70;;;;;;5027843;28;20468;-65
2023/07/12 09:00:42;;;;;;;3.67;3.37;;;30.60;65.70;;;;;;5046441;28;20466;-66
2023/07/12 09:03:11;;;;;;;3.80;3.50;;;30.60;65.60;;;;;;5041634;28;20529;-66
2023/07/12 09:05:39;;;;;;;3.37;3.17;;;30.60;65.60;;;;;;5036659;28;20475;-69
2023/07/12 09:08:19;;;;;;;4.03;3.70;;;30.70;65.70;;;;;;5042438;28;20462;-66
2023/07/12 09:10:49;;;;;;;4.13;3.37;;;30.70;65.60;;;;;;5041207;28;20464;-64
2023/07/12 09:13:18;;;;;;;3.93;3.63;;;30.70;65.50;;;;;;5037640;28;20473;-65
2023/07/12 09:15:51;;;;;;;3.60;3.07;;;30.70;65.50;;;;;;5045458;28;20461;-66
2023/07/12 09:18:29;;;;;;;4.73;3.53;;;30.70;65.50;;;;;;5048439;28;20452;-65
2023/07/12 09:20:59;;;;;;;5.13;3.30;;;30.70;65.50;;;;;;5046055;28;21025;-65
2023/07/12 09:23:37;;;;;;;4.00;3.70;;;30.70;65.50;;;;;;5016140;28;20823;-65
2023/07/12 09:26:12;;;;;;;3.27;2.97;;;30.70;65.50;;;;;;5047110;28;20949;-65
2023/07/12 09:28:41;;;;;;;3.47;3.17;;;30.70;65.40;;;;;;5038059;28;20462;-65
2023/07/12 09:31:14;;;;;;;4.60;3.33;;;30.70;65.50;;;;;;5049584;28;20454;-65
2023/07/12 09:33:48;;;;;;;6.03;3.60;;;30.70;65.50;;;;;;5043040;28;20458;-64
2023/07/12 09:36:17;;;;;;;5.63;3.70;;;30.70;65.40;;;;;;5047512;28;20512;-67
2023/07/12 09:38:47;;;;;;;3.93;3.63;;;30.70;65.40;;;;;;5036800;28;20491;-64
2023/07/12 09:41:19;;;;;;;5.03;3.50;;;30.80;65.40;;;;;;5037178;28;20454;-65
2023/07/12 09:43:54;;;;;;;3.70;3.40;;;30.70;65.50;;;;;;5041427;28;20464;-66
2023/07/12 09:46:34;;;;;;;3.90;3.50;;;30.80;65.30;;;;;;5039055;28;20473;-65
2023/07/12 09:49:08;;;;;;;5.70;5.03;;;30.70;65.20;;;;;;5018912;28;20910;-69
2023/07/12 09:51:47;;;;;;;4.50;4.10;;;30.70;65.30;;;;;;5044757;28;20997;-67
2023/07/12 09:54:33;;;;;;;8.17;4.67;;;30.70;65.30;;;;;;5046195;28;20469;-65
2023/07/12 09:57:04;;;;;;;5.90;5.40;;;30.70;65.30;;;;;;5035359;28;21021;-66
2023/07/12 09:59:45;;;;;;;6.10;5.33;;;30.70;65.30;;;;;;5047294;28;20458;-65
2023/07/12 10:02:22;;;;;;;5.50;5.00;;;30.70;65.40;;;;;;5036715;28;20525;-67
2023/07/12 10:04:55;;;;;;;7.50;5.70;;;30.60;65.40;;;;;;5037227;28;21040;-65
2023/07/12 10:07:35;;;;;;;7.33;6.63;;;30.60;65.40;;;;;;5039503;28;20466;-66
2023/07/12 10:10:18;;;;;;;6.53;5.57;;;30.70;65.40;;;;;;5042044;28;20876;-67
2023/07/12 10:12:55;;;;;;;7.27;5.83;;;30.70;65.50;;;;;;5035468;28;21081;-66
2023/07/12 10:15:29;;;;;;;5.73;5.20;;;30.70;65.60;;;;;;5042140;28;21001;-65
2023/07/12 10:17:58;;;;;;;6.87;5.73;;;30.70;65.50;;;;;;5036534;28;20497;-65
2023/07/12 10:20:26;;;;;;;6.77;5.40;;;30.70;65.50;;;;;;5043427;28;20476;-66
2023/07/12 10:22:56;;;;;;;7.43;6.00;;;30.70;65.50;;;;;;5036542;28;20457;-66
2023/07/12 10:25:30;;;;;;;7.40;6.80;;;30.70;65.50;;;;;;5033577;28;20465;-66
2023/07/12 10:28:03;;;;;;;5.40;5.00;;;30.70;65.40;;;;;;5038872;28;20454;-65
2023/07/12 10:30:33;;;;;;;8.23;6.80;;;30.70;65.40;;;;;;5035305;28;20466;-65
2023/07/12 10:33:13;;;;;;;18.27;13.50;;;30.70;65.40;;;;;;5045905;28;20554;-65
2023/07/12 10:35:46;;;;;;;13.93;12.53;;;30.60;65.50;;;;;;5028970;28;20529;-65
2023/07/12 10:38:17;;;;;;;20.50;13.37;;;30.70;65.50;;;;;;5036872;28;20489;-65
2023/07/12 10:40:53;;;;;;;30.40;19.80;;;30.60;65.50;;;;;;5041267;28;20451;-65
2023/07/12 10:43:25;;;;;;;36.70;19.90;;;30.60;65.50;;;;;;5040610;28;20462;-65
2023/07/12 10:45:57;;;;;;;28.20;17.50;;;30.60;65.60;;;;;;5043446;28;20472;-66
2023/07/12 10:48:29;;;;;;;20.30;15.57;;;30.60;65.70;;;;;;5037630;28;21012;-65
2023/07/12 10:51:17;;;;;;;16.97;13.30;;;30.60;65.70;;;;;;5040988;28;20461;-65
2023/07/12 10:53:50;;;;;;;13.77;11.50;;;30.60;65.70;;;;;;5053472;28;20950;-65
2023/07/12 10:56:25;;;;;;;18.83;10.47;;;30.60;65.70;;;;;;5036147;28;20465;-65
2023/07/12 10:58:58;;;;;;;15.20;9.93;;;30.60;65.70;;;;;;5046022;28;20452;-66
2023/07/12 11:01:52;;;;;;;10.93;9.47;;;30.60;65.60;;;;;;5042950;28;20473;-65
2023/07/12 11:04:46;;;;;;;9.07;8.10;;;30.60;65.60;;;;;;5041301;28;20491;-65
2023/07/12 11:07:44;;;;;;;11.20;9.80;;;30.60;65.50;;;;;;5028124;28;20538;-66
2023/07/12 11:10:26;;;;;;;13.43;9.93;;;30.60;65.60;;;;;;4965745;28;20469;-66
2023/07/12 11:13:11;;;;;;;10.23;8.10;;;30.60;65.70;;;;;;5036445;28;20497;-65
2023/07/12 11:15:59;;;;;;;9.80;8.20;;;30.60;65.80;;;;;;5042162;28;20544;-66
2023/07/12 11:18:34;;;;;;;14.33;7.87;;;30.60;65.70;;;;;;5034373;28;20546;-71
2023/07/12 11:21:04;;;;;;;8.00;7.20;;;30.50;66.30;;;;;;5041815;28;20488;-73
2023/07/12 11:23:49;;;;;;;8.70;7.83;;;30.40;66.30;;;;;;5031282;28;20500;-70
2023/07/12 11:26:25;;;;;;;8.17;7.37;;;30.40;66.50;;;;;;5035964;28;20519;-71
2023/07/12 11:29:27;;;;;;;8.60;7.70;;;30.30;66.90;;;;;;5044777;28;20463;-71
2023/07/12 11:32:07;;;;;;;7.33;6.67;;;30.20;67.20;;;;;;5042519;28;20487;-68
2023/07/12 11:34:40;;;;;;;7.33;6.70;;;30.10;67.20;;;;;;5033184;28;20887;-68
2023/07/12 11:37:17;;;;;;;12.27;6.77;;;30.10;67.50;;;;;;5043110;28;20553;-69
2023/07/12 11:39:47;;;;;;;8.10;6.17;;;30.10;67.50;;;;;;5046766;28;20473;-68
2023/07/12 11:42:26;;;;;;;6.73;6.13;;;30.10;67.10;;;;;;5050338;28;20957;-68
2023/07/12 11:45:03;;;;;;;6.80;6.17;;;30.10;67.00;;;;;;5047400;28;21286;-69
2023/07/12 11:47:35;;;;;;;8.03;6.80;;;30.10;66.20;;;;;;5047093;28;20462;-71
2023/07/12 11:50:03;;;;;;;7.17;6.57;;;30.20;66.30;;;;;;5042738;28;20520;-70
2023/07/12 11:52:33;;;;;;;7.90;7.07;;;30.30;65.60;;;;;;5049301;28;20923;-70
2023/07/12 11:55:05;;;;;;;6.80;6.20;;;30.30;65.50;;;;;;5048104;28;20469;-70
2023/07/12 11:57:39;;;;;;;9.20;6.30;;;30.30;65.70;;;;;;5042609;28;20497;-70
2023/07/12 12:00:18;;;;;;;7.90;7.20;;;30.40;65.80;;;;;;5049216;28;20498;-71
2023/07/12 12:02:50;;;;;;;7.87;6.70;;;30.50;65.70;;;;;;5042727;28;20549;-71
2023/07/12 12:05:25;;;;;;;6.97;6.37;;;30.50;65.60;;;;;;5047872;28;20502;-70
2023/07/12 12:07:55;;;;;;;7.47;6.70;;;30.50;64.80;;;;;;5047733;28;20458;-71
2023/07/12 12:10:27;;;;;;;5.80;5.40;;;30.50;65.10;;;;;;5042904;28;20977;-71
2023/07/12 12:12:56;;;;;;;7.23;6.53;;;30.50;65.20;;;;;;5043935;28;20539;-71
2023/07/12 12:15:28;;;;;;;6.43;5.93;;;30.50;65.40;;;;;;5053190;28;20485;-70
2023/07/12 12:17:57;;;;;;;6.30;5.80;;;30.40;66.00;;;;;;5045741;28;20455;-72
2023/07/12 12:20:28;;;;;;;6.37;5.77;;;30.30;66.60;;;;;;5046139;28;20466;-73
2023/07/12 12:23:12;;;;;;;6.23;5.73;;;30.30;66.70;;;;;;5044046;28;20462;-71
2023/07/12 12:25:47;;;;;;;6.57;5.97;;;30.20;67.00;;;;;;5048207;28;20459;-72
2023/07/12 12:28:25;;;;;;;7.00;6.40;;;30.10;67.50;;;;;;5044614;28;20976;-73
2023/07/12 12:31:00;;;;;;;6.50;5.73;;;30.00;67.30;;;;;;5051683;28;20503;-77
2023/07/12 12:33:29;;;;;;;7.70;7.00;;;29.90;66.90;;;;;;5051866;28;20484;-76
2023/07/12 12:36:00;;;;;;;6.90;6.20;;;29.80;67.20;;;;;;5051905;28;20508;-75
2023/07/12 12:38:32;;;;;;;8.70;7.77;;;29.70;68.00;;;;;;5057282;28;20493;-74
2023/07/12 12:41:12;;;;;;;7.40;6.80;;;29.60;69.60;;;;;;5054106;28;20498;-74
2023/07/12 12:43:55;;;;;;;7.40;6.73;;;29.40;69.80;;;;;;5048837;28;20538;-75
2023/07/12 12:46:25;;;;;;;7.80;7.27;;;29.40;70.10;;;;;;5049889;28;20507;-76
2023/07/12 12:49:22;;;;;;;7.07;6.37;;;29.30;70.80;;;;;;5051468;28;20480;-70
2023/07/12 12:51:55;;;;;;;7.93;7.23;;;29.10;71.10;;;;;;5047982;28;20460;-70
2023/07/12 12:54:26;;;;;;;7.40;6.77;;;28.80;72.20;;;;;;5051315;28;20562;-70
2023/07/12 12:56:54;;;;;;;6.73;6.00;;;28.50;72.60;;;;;;5051305;28;20453;-69
2023/07/12 12:59:25;;;;;;;6.67;6.07;;;27.90;71.40;;;;;;5046844;28;20457;-71
2023/07/12 13:01:58;;;;;;;7.90;5.67;;;27.30;72.80;;;;;;5053313;28;21002;-71
2023/07/12 13:04:29;;;;;;;6.03;4.50;;;27.00;73.10;;;;;;5033891;28;20528;-70
2023/07/12 13:07:22;;;;;;;4.60;4.20;;;26.90;71.30;;;;;;5051861;28;20461;-71